Fisher, Minnesota
Current Conditions -  °F | °C
As of 12:35 AM on Saturday 20 Dec 2014 (Local Time) from KCKN Reporting Station
Haze Haze  
Wind Chill: 23°   Ceiling: 800
Heat Index: 30°   Visibility: 3mi
Dew Point: 28°   Wind: 8mph
Humidity: 93%   Direction: 200°SSW
Pressure: 30.02"   Gusts: NA
Location:  47.8°N, 96.8°W
Report Text: KCKN 200635Z AUTO 20007KT 3SM BR OVC008 M01/M02 A3002 RMK AO2
Loading
Personal Weather Stations






























Interactive Weather Map New forecast layout! Learn more

10-Day Weather Forecast

Advertisements
Track Severe Weather on mobile